createdAt,value
2022-12-13T00:02:27.970Z,99897.00
2022-12-13T00:04:56.638Z,99892.00
2022-12-13T00:07:26.549Z,99893.00
2022-12-13T00:09:55.166Z,99892.00
2022-12-13T00:12:23.754Z,99889.00
2022-12-13T00:14:55.632Z,99889.00
2022-12-13T00:17:24.259Z,99888.00
2022-12-13T00:19:52.931Z,99885.00
2022-12-13T00:22:21.584Z,99889.00
2022-12-13T00:24:51.577Z,99878.00
2022-12-13T00:27:20.197Z,99885.00
2022-12-13T00:29:48.815Z,99883.00
2022-12-13T00:32:17.617Z,99874.00
2022-12-13T00:34:46.271Z,99871.00
2022-12-13T00:37:14.982Z,99878.00
2022-12-13T00:39:43.582Z,99887.00
2022-12-13T00:42:13.573Z,99889.00
2022-12-13T00:44:42.228Z,99888.00
2022-12-13T00:47:10.838Z,99889.00
2022-12-13T00:49:39.586Z,99884.00
2022-12-13T00:52:08.206Z,99885.00
2022-12-13T00:54:36.954Z,99884.00
2022-12-13T00:57:05.880Z,99888.00
2022-12-13T00:59:35.903Z,99884.00
2022-12-13T01:02:04.908Z,99886.00
2022-12-13T01:04:33.561Z,99881.00
2022-12-13T01:07:02.201Z,99877.00
2022-12-13T01:09:32.434Z,99873.00
2022-12-13T01:12:03.569Z,99874.00
2022-12-13T01:14:32.444Z,99880.00
2022-12-13T01:17:02.834Z,99884.00
2022-12-13T01:19:31.792Z,99878.00
2022-12-13T01:22:03.385Z,99874.00
2022-12-13T01:24:33.032Z,99877.00
2022-12-13T01:27:01.965Z,99878.00
2022-12-13T01:29:30.578Z,99875.00
2022-12-13T01:31:59.180Z,99874.00
2022-12-13T01:34:29.238Z,99870.00
2022-12-13T01:36:59.032Z,99867.00
2022-12-13T01:39:28.283Z,99868.00
2022-12-13T01:41:59.877Z,99868.00
2022-12-13T01:45:02.368Z,99877.00
2022-12-13T01:47:34.936Z,99873.00
2022-12-13T01:50:10.399Z,99873.00
2022-12-13T01:52:39.716Z,99869.00
2022-12-13T01:55:09.999Z,99866.00
2022-12-13T01:57:45.703Z,99873.00
2022-12-13T02:00:16.579Z,99862.00
2022-12-13T02:02:45.581Z,99863.00
2022-12-13T02:05:22.530Z,99871.00
2022-12-13T02:07:52.266Z,99864.00
2022-12-13T02:10:21.672Z,99857.00
2022-12-13T02:12:50.287Z,99860.00
2022-12-13T02:15:20.183Z,99863.00
2022-12-13T02:18:06.311Z,99864.00
2022-12-13T02:21:03.956Z,99860.00
2022-12-13T02:24:08.990Z,99854.00
2022-12-13T02:27:08.519Z,99862.00
2022-12-13T02:30:12.935Z,99869.00
2022-12-13T02:32:51.531Z,99856.00
2022-12-13T02:35:25.992Z,99864.00
2022-12-13T02:38:01.681Z,99850.00
2022-12-13T02:40:33.131Z,99859.00
2022-12-13T02:43:06.187Z,99852.00
2022-12-13T02:45:40.455Z,99851.00
2022-12-13T02:48:13.173Z,99855.00
2022-12-13T02:50:42.707Z,99853.00
2022-12-13T02:53:12.454Z,99860.00
2022-12-13T02:55:41.727Z,99862.00
2022-12-13T02:58:14.631Z,99848.00
2022-12-13T03:00:54.856Z,99852.00
2022-12-13T03:03:34.053Z,99846.00
2022-12-13T03:06:34.184Z,99856.00
2022-12-13T03:09:20.964Z,99846.00
2022-12-13T03:12:20.895Z,99837.00
2022-12-13T03:14:57.513Z,99846.00
2022-12-13T03:17:30.865Z,99848.00
2022-12-13T03:20:00.908Z,99846.00
2022-12-13T03:22:29.466Z,99858.00
2022-12-13T03:24:58.179Z,99857.00
2022-12-13T03:27:26.805Z,99860.00
2022-12-13T03:29:55.653Z,99851.00
2022-12-13T03:32:24.280Z,99844.00
2022-12-13T03:35:00.721Z,99851.00
2022-12-13T03:37:31.214Z,99843.00
2022-12-13T03:40:00.304Z,99846.00
2022-12-13T03:42:28.999Z,99837.00
2022-12-13T03:44:57.593Z,99837.00
2022-12-13T03:47:26.267Z,99829.00
2022-12-13T03:49:55.889Z,99836.00
2022-12-13T03:52:24.512Z,99833.00
2022-12-13T03:54:54.486Z,99832.00
2022-12-13T03:57:23.150Z,99830.00
2022-12-13T03:59:51.754Z,99840.00
2022-12-13T04:02:31.213Z,99840.00
2022-12-13T04:05:00.888Z,99843.00
2022-12-13T04:07:34.416Z,99848.00
2022-12-13T04:10:25.577Z,99846.00
2022-12-13T04:13:11.080Z,99846.00
2022-12-13T04:15:39.848Z,99846.00
2022-12-13T04:18:08.578Z,99845.00
2022-12-13T04:20:37.153Z,99846.00
2022-12-13T04:23:10.079Z,99844.00
2022-12-13T04:25:41.112Z,99833.00
2022-12-13T04:28:10.321Z,99833.00
2022-12-13T04:30:39.111Z,99837.00
2022-12-13T04:33:07.730Z,99836.00
2022-12-13T04:35:36.397Z,99839.00
2022-12-13T04:38:05.029Z,99839.00
2022-12-13T04:40:33.634Z,99835.00
2022-12-13T04:43:03.669Z,99838.00
2022-12-13T04:45:32.360Z,99847.00
2022-12-13T04:48:01.013Z,99842.00
2022-12-13T04:50:29.645Z,99832.00
2022-12-13T04:52:58.282Z,99833.00
2022-12-13T04:55:26.907Z,99832.00
2022-12-13T04:57:55.542Z,99836.00
2022-12-13T05:00:26.439Z,99836.00
2022-12-13T05:02:55.057Z,99843.00
2022-12-13T05:05:23.744Z,99845.00
2022-12-13T05:07:52.458Z,99847.00
2022-12-13T05:10:33.837Z,99852.00
2022-12-13T05:13:07.394Z,99849.00
2022-12-13T05:15:37.386Z,99849.00
2022-12-13T05:18:09.470Z,99848.00
2022-12-13T05:20:40.262Z,99851.00
2022-12-13T05:23:09.009Z,99847.00
2022-12-13T05:25:37.862Z,99850.00
2022-12-13T05:28:08.770Z,99847.00
2022-12-13T05:30:41.303Z,99838.00
2022-12-13T05:33:10.589Z,99846.00
2022-12-13T05:35:39.602Z,99844.00
2022-12-13T05:38:08.183Z,99850.00
2022-12-13T05:40:37.147Z,99848.00
2022-12-13T05:43:21.861Z,99851.00
2022-12-13T05:45:52.731Z,99851.00
2022-12-13T05:48:24.868Z,99855.00
2022-12-13T05:51:09.903Z,99852.00
2022-12-13T05:53:40.586Z,99854.00
2022-12-13T05:56:10.360Z,99848.00
2022-12-13T05:58:39.907Z,99848.00
2022-12-13T06:01:11.799Z,99846.00
2022-12-13T06:03:40.873Z,99854.00
2022-12-13T06:06:11.589Z,99851.00
2022-12-13T06:08:40.864Z,99846.00
2022-12-13T06:11:10.634Z,99851.00
2022-12-13T06:13:43.596Z,99846.00
2022-12-13T06:16:22.559Z,99847.00
2022-12-13T06:19:01.328Z,99849.00
2022-12-13T06:21:44.086Z,99855.00
2022-12-13T06:24:16.424Z,99855.00
2022-12-13T06:26:45.859Z,99855.00
2022-12-13T06:29:22.527Z,99855.00
2022-12-13T06:32:01.878Z,99856.00
2022-12-13T06:34:33.576Z,99860.00
2022-12-13T06:37:02.526Z,99866.00
2022-12-13T06:39:33.215Z,99868.00
2022-12-13T06:42:02.992Z,99868.00
2022-12-13T06:44:31.801Z,99872.00
2022-12-13T06:47:10.166Z,99866.00
2022-12-13T06:49:43.198Z,99881.00
2022-12-13T06:52:13.723Z,99874.00
2022-12-13T06:54:42.741Z,99876.00
2022-12-13T06:57:11.795Z,99872.00
2022-12-13T06:59:41.175Z,99872.00
2022-12-13T07:02:24.687Z,99879.00
2022-12-13T07:04:55.103Z,99880.00
2022-12-13T07:07:24.587Z,99880.00
2022-12-13T07:09:53.826Z,99872.00
2022-12-13T07:12:22.583Z,99880.00
2022-12-13T07:14:51.243Z,99895.00
2022-12-13T07:17:32.067Z,99892.00
2022-12-13T07:20:09.179Z,99892.00
2022-12-13T07:22:46.786Z,99902.00
2022-12-13T07:25:27.898Z,99897.00
2022-12-13T07:28:02.231Z,99893.00
2022-12-13T07:30:32.384Z,99890.00
2022-12-13T07:33:02.910Z,99897.00
2022-12-13T07:35:32.455Z,99888.00
2022-12-13T07:38:06.330Z,99894.00
2022-12-13T07:40:35.410Z,99902.00
2022-12-13T07:43:04.213Z,99894.00
2022-12-13T07:45:33.165Z,99906.00
2022-12-13T07:48:06.377Z,99896.00
2022-12-13T07:50:37.256Z,99899.00
2022-12-13T07:53:07.673Z,99902.00
2022-12-13T07:55:37.910Z,99902.00
2022-12-13T07:58:08.278Z,99902.00
2022-12-13T08:00:37.391Z,99906.00
2022-12-13T08:03:07.597Z,99912.00
2022-12-13T08:05:39.007Z,99903.00
2022-12-13T08:08:10.103Z,99904.00
2022-12-13T08:10:39.178Z,99900.00
2022-12-13T08:13:07.874Z,99896.00
2022-12-13T08:15:36.546Z,99897.00
2022-12-13T08:18:06.633Z,99912.00
2022-12-13T08:20:35.263Z,99909.00
2022-12-13T08:23:03.952Z,99920.00
2022-12-13T08:25:33.022Z,99910.00
2022-12-13T08:28:02.779Z,99912.00
2022-12-13T08:30:33.141Z,99911.00
2022-12-13T08:33:05.009Z,99914.00
2022-12-13T08:35:35.506Z,99901.00
2022-12-13T08:38:05.092Z,99915.00
2022-12-13T08:40:34.848Z,99901.00
2022-12-13T08:43:03.679Z,99899.00
2022-12-13T08:45:34.262Z,99905.00
2022-12-13T08:48:03.602Z,99907.00
2022-12-13T08:50:34.138Z,99905.00
2022-12-13T08:53:02.743Z,99905.00
2022-12-13T08:55:32.171Z,99908.00
2022-12-13T08:58:06.984Z,99901.00
2022-12-13T09:00:36.600Z,99912.00
2022-12-13T09:03:09.848Z,99910.00
2022-12-13T09:05:40.535Z,99911.00
2022-12-13T09:08:22.827Z,99905.00
2022-12-13T09:11:00.376Z,99913.00
2022-12-13T09:13:32.025Z,99914.00
2022-12-13T09:16:04.952Z,99905.00
2022-12-13T09:18:43.021Z,99912.00
2022-12-13T09:21:22.009Z,99906.00
2022-12-13T09:23:51.260Z,99914.00
2022-12-13T09:26:25.354Z,99907.00
2022-12-13T09:28:54.526Z,99910.00
2022-12-13T09:31:23.323Z,99899.00
2022-12-13T09:33:52.130Z,99908.00
2022-12-13T09:36:23.497Z,99910.00
2022-12-13T09:38:54.261Z,99901.00
2022-12-13T09:41:29.789Z,99898.00
2022-12-13T09:44:02.939Z,99897.00
2022-12-13T09:46:44.532Z,99900.00
2022-12-13T09:49:23.022Z,99891.00
2022-12-13T09:52:10.806Z,99889.00
2022-12-13T09:54:48.186Z,99880.00
2022-12-13T09:57:32.963Z,99868.00
2022-12-13T10:00:05.380Z,99882.00
2022-12-13T10:02:37.983Z,99877.00
2022-12-13T10:05:22.166Z,99877.00
2022-12-13T10:07:56.155Z,99873.00
2022-12-13T10:10:25.562Z,99878.00
2022-12-13T10:13:04.787Z,99885.00
2022-12-13T10:15:36.080Z,99883.00
2022-12-13T10:18:07.945Z,99877.00
2022-12-13T10:20:37.092Z,99872.00
2022-12-13T10:26:02.925Z,99868.00
2022-12-13T10:28:34.637Z,99867.00
2022-12-13T10:31:03.916Z,99868.00
2022-12-13T10:33:34.902Z,99861.00
2022-12-13T10:36:15.891Z,99863.00
2022-12-13T10:38:47.161Z,99864.00
2022-12-13T10:41:34.948Z,99857.00
2022-12-13T10:44:22.553Z,99854.00
2022-12-13T10:47:06.047Z,99864.00
2022-12-13T10:49:40.544Z,99857.00
2022-12-13T10:52:31.620Z,99845.00
2022-12-13T10:55:23.343Z,99853.00
2022-12-13T10:57:54.557Z,99851.00
2022-12-13T11:00:37.898Z,99840.00
2022-12-13T11:03:07.321Z,99845.00
2022-12-13T11:05:37.711Z,99849.00
2022-12-13T11:08:17.664Z,99837.00
2022-12-13T11:10:57.138Z,99849.00
2022-12-13T11:13:32.794Z,99852.00
2022-12-13T11:16:02.417Z,99846.00
2022-12-13T11:18:37.159Z,99847.00
2022-12-13T11:21:07.780Z,99835.00
2022-12-13T11:23:39.095Z,99829.00
2022-12-13T11:26:12.464Z,99835.00
2022-12-13T11:29:08.456Z,99831.00
2022-12-13T11:31:47.977Z,99824.00
2022-12-13T11:34:28.871Z,99826.00
2022-12-13T11:37:06.121Z,99830.00
2022-12-13T11:39:38.885Z,99826.00
2022-12-13T11:42:18.168Z,99818.00
2022-12-13T11:44:57.200Z,99830.00
2022-12-13T11:47:30.374Z,99826.00
2022-12-13T11:49:59.772Z,99824.00
2022-12-13T11:52:31.995Z,99824.00
2022-12-13T11:55:03.548Z,99823.00
2022-12-13T11:57:46.132Z,99827.00
2022-12-13T12:00:37.055Z,99827.00
2022-12-13T12:03:19.889Z,99826.00
2022-12-13T12:05:55.808Z,99824.00
2022-12-13T12:08:36.589Z,99826.00
2022-12-13T12:11:13.596Z,99810.00
2022-12-13T12:13:51.159Z,99823.00
2022-12-13T12:16:29.969Z,99824.00
2022-12-13T12:19:01.269Z,99827.00
2022-12-13T12:24:36.842Z,99827.00
2022-12-13T12:27:22.608Z,99824.00
2022-12-13T12:30:11.212Z,99833.00
2022-12-13T12:32:48.183Z,99826.00
2022-12-13T12:35:46.491Z,99827.00
2022-12-13T12:38:38.193Z,99835.00
2022-12-13T12:41:29.410Z,99828.00
2022-12-13T12:44:06.202Z,99830.00
2022-12-13T12:47:18.169Z,99830.00
2022-12-13T12:50:09.162Z,99826.00
2022-12-13T12:52:47.902Z,99819.00
2022-12-13T12:55:23.202Z,99819.00
2022-12-13T12:58:01.620Z,99819.00
2022-12-13T13:00:36.987Z,99803.00
2022-12-13T13:03:26.843Z,99817.00
2022-12-13T13:06:02.687Z,99803.00
2022-12-13T13:08:38.975Z,99805.00
2022-12-13T13:11:24.570Z,99808.00
2022-12-13T13:14:06.610Z,99812.00
2022-12-13T13:16:38.514Z,99805.00
2022-12-13T13:19:42.378Z,99808.00
2022-12-13T13:22:32.742Z,99813.00
2022-12-13T13:25:25.869Z,99813.00
2022-12-13T13:28:01.863Z,99812.00
2022-12-13T13:30:31.669Z,99820.00
2022-12-13T13:33:01.106Z,99808.00
2022-12-13T13:35:55.092Z,99817.00
2022-12-13T13:38:53.230Z,99800.00
2022-12-13T13:41:56.032Z,99817.00
2022-12-13T13:44:56.401Z,99810.00
2022-12-13T13:47:41.163Z,99806.00
2022-12-13T13:50:48.831Z,99808.00
2022-12-13T13:54:04.888Z,99822.00
2022-12-13T13:57:15.024Z,99823.00
2022-12-13T14:00:14.935Z,99834.00
2022-12-13T14:03:33.130Z,99826.00
2022-12-13T14:06:42.594Z,99830.00
2022-12-13T14:09:42.911Z,99832.00
2022-12-13T14:12:56.739Z,99826.00
2022-12-13T14:16:07.796Z,99818.00
2022-12-13T14:19:28.594Z,99818.00
2022-12-13T14:22:10.184Z,99818.00
2022-12-13T14:25:00.534Z,99812.00
2022-12-13T14:27:43.608Z,99823.00
2022-12-13T14:30:27.515Z,99812.00
2022-12-13T14:32:58.853Z,99825.00
2022-12-13T14:35:29.317Z,99819.00
2022-12-13T14:37:59.826Z,99827.00
2022-12-13T14:40:33.031Z,99826.00
2022-12-13T14:43:02.366Z,99818.00
2022-12-13T14:45:32.477Z,99822.00
2022-12-13T14:48:04.443Z,99828.00
2022-12-13T14:50:36.955Z,99827.00
2022-12-13T14:53:06.768Z,99830.00
2022-12-13T14:55:39.662Z,99821.00
2022-12-13T14:58:18.972Z,99824.00
2022-12-13T15:00:49.406Z,99820.00
2022-12-13T15:03:25.053Z,99808.00
2022-12-13T15:05:58.136Z,99796.00
2022-12-13T15:08:31.342Z,99798.00
2022-12-13T15:11:09.543Z,99799.00
2022-12-13T15:13:44.085Z,99802.00
2022-12-13T15:16:28.249Z,99801.00
2022-12-13T15:19:10.954Z,99803.00
2022-12-13T15:21:40.482Z,99803.00
2022-12-13T15:24:13.412Z,99803.00
2022-12-13T15:26:45.629Z,99800.00
2022-12-13T15:29:20.084Z,99794.00
2022-12-13T15:31:49.577Z,99797.00
2022-12-13T15:34:36.827Z,99802.00
2022-12-13T15:37:12.107Z,99801.00
2022-12-13T15:40:01.784Z,99796.00
2022-12-13T15:42:35.558Z,99784.00
2022-12-13T15:45:07.882Z,99788.00
2022-12-13T15:47:37.659Z,99787.00
2022-12-13T15:50:09.505Z,99789.00
2022-12-13T15:52:39.762Z,99793.00
2022-12-13T15:55:34.139Z,99792.00
2022-12-13T15:58:23.883Z,99789.00
2022-12-13T16:00:54.209Z,99785.00
2022-12-13T16:03:26.051Z,99802.00
2022-12-13T16:06:00.004Z,99799.00
2022-12-13T16:08:31.187Z,99793.00
2022-12-13T16:11:00.833Z,99795.00
2022-12-13T16:13:32.983Z,99788.00
2022-12-13T16:16:26.954Z,99799.00
2022-12-13T16:18:58.377Z,99802.00
2022-12-13T16:21:27.389Z,99810.00
2022-12-13T16:23:55.998Z,99811.00
2022-12-13T16:26:27.359Z,99806.00
2022-12-13T16:28:58.688Z,99809.00
2022-12-13T16:31:31.372Z,99811.00
2022-12-13T16:34:00.081Z,99799.00
2022-12-13T16:36:28.689Z,99795.00
2022-12-13T16:38:57.478Z,99785.00
2022-12-13T16:41:26.410Z,99788.00
2022-12-13T16:43:58.064Z,99779.00
2022-12-13T16:47:14.234Z,99779.00
2022-12-13T16:49:24.696Z,99789.00
2022-12-13T16:51:53.743Z,99800.00
2022-12-13T16:54:24.689Z,99795.00
2022-12-13T16:56:54.895Z,99785.00
2022-12-13T16:59:26.040Z,99783.00
2022-12-13T17:01:55.432Z,99764.00
2022-12-13T17:04:27.054Z,99760.00
2022-12-13T17:06:55.838Z,99760.00
2022-12-13T17:09:25.159Z,99763.00
2022-12-13T17:11:53.852Z,99765.00
2022-12-13T17:14:23.940Z,99763.00
2022-12-13T17:16:52.614Z,99767.00
2022-12-13T17:19:21.300Z,99756.00
2022-12-13T17:21:49.946Z,99752.00
2022-12-13T17:24:18.599Z,99754.00
2022-12-13T17:26:53.809Z,99758.00
2022-12-13T17:29:24.216Z,99748.00
2022-12-13T17:31:54.473Z,99755.00
2022-12-13T17:34:23.835Z,99754.00
2022-12-13T17:36:52.484Z,99753.00
2022-12-13T17:39:21.308Z,99755.00
2022-12-13T17:41:55.003Z,99749.00
2022-12-13T17:44:26.543Z,99763.00
2022-12-13T17:46:55.911Z,99769.00
2022-12-13T17:49:25.046Z,99769.00
2022-12-13T17:51:54.589Z,99765.00
2022-12-13T17:54:25.355Z,99755.00
2022-12-13T17:56:55.334Z,99749.00
2022-12-13T17:59:27.219Z,99755.00
2022-12-13T18:01:56.203Z,99753.00
2022-12-13T18:04:24.940Z,99763.00
2022-12-13T18:06:53.665Z,99753.00
2022-12-13T18:09:22.254Z,99749.00
2022-12-13T18:11:51.239Z,99751.00
2022-12-13T18:14:19.893Z,99750.00
2022-12-13T18:16:49.851Z,99747.00
2022-12-13T18:19:19.091Z,99753.00
2022-12-13T18:21:48.292Z,99746.00
2022-12-13T18:24:16.893Z,99746.00
2022-12-13T18:26:45.522Z,99752.00
2022-12-13T18:29:14.179Z,99746.00
2022-12-13T18:31:42.874Z,99753.00
2022-12-13T18:34:13.325Z,99741.00
2022-12-13T18:36:42.008Z,99749.00
2022-12-13T18:39:10.709Z,99744.00
2022-12-13T18:41:40.150Z,99741.00
2022-12-13T18:44:09.388Z,99744.00
2022-12-13T18:46:43.395Z,99742.00
2022-12-13T18:49:15.787Z,99741.00
2022-12-13T18:51:44.497Z,99744.00
2022-12-13T18:54:13.058Z,99739.00
2022-12-13T18:56:41.628Z,99742.00
2022-12-13T18:59:11.738Z,99746.00
2022-12-13T19:01:40.459Z,99728.00
2022-12-13T19:04:09.189Z,99737.00
2022-12-13T19:06:39.255Z,99740.00
2022-12-13T19:09:08.562Z,99742.00
2022-12-13T19:11:37.286Z,99747.00
2022-12-13T19:14:06.015Z,99729.00
2022-12-13T19:16:34.883Z,99719.00
2022-12-13T19:19:03.622Z,99719.00
2022-12-13T19:21:32.254Z,99728.00
2022-12-13T19:24:02.473Z,99741.00
2022-12-13T19:26:31.577Z,99743.00
2022-12-13T19:29:00.501Z,99740.00
2022-12-13T19:31:32.215Z,99736.00
2022-12-13T19:34:03.408Z,99732.00
2022-12-13T19:36:33.061Z,99738.00
2022-12-13T19:39:03.124Z,99749.00
2022-12-13T19:41:33.535Z,99740.00
2022-12-13T19:44:04.536Z,99732.00
2022-12-13T19:46:33.692Z,99717.00
2022-12-13T19:49:02.590Z,99728.00
2022-12-13T19:51:37.433Z,99713.00
2022-12-13T19:54:10.701Z,99724.00
2022-12-13T19:56:39.309Z,99719.00
2022-12-13T19:59:07.980Z,99725.00
2022-12-13T20:01:36.651Z,99732.00
2022-12-13T20:04:05.608Z,99714.00
2022-12-13T20:06:34.360Z,99723.00
2022-12-13T20:09:03.067Z,99720.00
2022-12-13T20:11:33.962Z,99724.00
2022-12-13T20:14:02.580Z,99710.00
2022-12-13T20:16:31.318Z,99708.00
2022-12-13T20:19:01.386Z,99708.00
2022-12-13T20:21:30.489Z,99708.00
2022-12-13T20:23:59.205Z,99710.00
2022-12-13T20:26:29.421Z,99706.00
2022-12-13T20:28:59.955Z,99710.00
2022-12-13T20:31:30.582Z,99717.00
2022-12-13T20:34:02.222Z,99711.00
2022-12-13T20:36:31.825Z,99696.00
2022-12-13T20:39:01.979Z,99703.00
2022-12-13T20:41:33.907Z,99698.00
2022-12-13T20:44:05.766Z,99701.00
2022-12-13T20:46:35.436Z,99703.00
2022-12-13T20:49:05.660Z,99699.00
2022-12-13T20:51:35.769Z,99703.00
2022-12-13T20:54:04.962Z,99707.00
2022-12-13T20:56:35.905Z,99701.00
2022-12-13T20:59:34.326Z,99696.00
2022-12-13T21:02:04.451Z,99701.00
2022-12-13T21:04:33.748Z,99688.00
2022-12-13T21:07:03.440Z,99701.00
2022-12-13T21:09:32.006Z,99688.00
2022-12-13T21:12:00.589Z,99685.00
2022-12-13T21:14:30.154Z,99692.00
2022-12-13T21:17:00.114Z,99682.00
2022-12-13T21:19:39.097Z,99686.00
2022-12-13T21:22:08.904Z,99682.00
2022-12-13T21:24:37.573Z,99693.00
2022-12-13T21:27:06.261Z,99681.00
2022-12-13T21:29:34.906Z,99673.00
2022-12-13T21:32:03.569Z,99676.00
2022-12-13T21:34:33.774Z,99673.00
2022-12-13T21:37:02.633Z,99673.00
2022-12-13T21:39:31.371Z,99665.00
2022-12-13T21:42:00.285Z,99658.00
2022-12-13T21:44:29.080Z,99644.00
2022-12-13T21:47:13.767Z,99644.00
2022-12-13T21:49:48.364Z,99637.00
2022-12-13T21:52:17.565Z,99637.00
2022-12-13T21:54:46.122Z,99634.00
2022-12-13T21:57:32.135Z,99627.00
2022-12-13T22:00:00.844Z,99624.00
2022-12-13T22:02:29.493Z,99628.00
2022-12-13T22:05:00.219Z,99623.00
2022-12-13T22:07:30.238Z,99634.00
2022-12-13T22:10:00.162Z,99638.00
2022-12-13T22:12:33.569Z,99634.00
2022-12-13T22:15:02.938Z,99626.00
2022-12-13T22:17:35.780Z,99627.00
2022-12-13T22:20:08.996Z,99624.00
2022-12-13T22:22:38.615Z,99618.00
2022-12-13T22:25:08.873Z,99633.00
2022-12-13T22:27:37.505Z,99629.00
2022-12-13T22:30:07.109Z,99630.00
2022-12-13T22:32:35.718Z,99636.00
2022-12-13T22:35:05.995Z,99631.00
2022-12-13T22:37:35.277Z,99626.00
2022-12-13T22:40:04.454Z,99613.00
2022-12-13T22:42:33.030Z,99617.00
2022-12-13T22:45:01.673Z,99620.00
2022-12-13T22:47:31.252Z,99621.00
2022-12-13T22:49:59.945Z,99616.00
2022-12-13T22:52:33.742Z,99610.00
2022-12-13T22:55:02.860Z,99602.00
2022-12-13T22:57:31.464Z,99595.00
2022-12-13T23:00:00.077Z,99599.00
2022-12-13T23:02:28.789Z,99595.00
2022-12-13T23:04:57.392Z,99588.00
2022-12-13T23:07:26.049Z,99589.00
2022-12-13T23:09:56.155Z,99599.00
2022-12-13T23:12:42.127Z,99598.00
2022-12-13T23:15:11.597Z,99585.00
2022-12-13T23:17:40.258Z,99589.00
2022-12-13T23:20:10.365Z,99577.00
2022-12-13T23:22:39.013Z,99574.00
2022-12-13T23:25:10.055Z,99563.00
2022-12-13T23:27:38.728Z,99565.00
2022-12-13T23:30:08.336Z,99566.00
2022-12-13T23:32:36.938Z,99569.00
2022-12-13T23:35:06.020Z,99561.00
2022-12-13T23:37:36.442Z,99561.00
2022-12-13T23:40:05.728Z,99546.00
2022-12-13T23:42:35.822Z,99552.00
2022-12-13T23:45:04.768Z,99547.00
2022-12-13T23:47:33.409Z,99538.00
2022-12-13T23:50:02.017Z,99543.00
2022-12-13T23:52:30.636Z,99532.00
2022-12-13T23:54:59.290Z,99535.00
2022-12-13T23:57:27.923Z,99525.00
2022-12-13T23:59:57.886Z,99525.00
